sensor_id;sensor_type;location;lat;lon;timestamp;pressure;altitude;pressure_sealevel;temperature
60936;BMP280;46804;51.786;19.520;2023-07-31T00:00:47;158810.72;;;17.97
60936;BMP280;46804;51.786;19.520;2023-07-31T00:05:01;158813.28;;;17.98
60936;BMP280;46804;51.786;19.520;2023-07-31T00:09:01;158806.84;;;17.96
60936;BMP280;46804;51.786;19.520;2023-07-31T00:13:02;158819.72;;;18.01
60936;BMP280;46804;51.786;19.520;2023-07-31T00:17:03;158764.28;;;17.79
60936;BMP280;46804;51.786;19.520;2023-07-31T00:21:04;158764.28;;;17.79
60936;BMP280;46804;51.786;19.520;2023-07-31T00:25:05;158737.19;;;17.69
60936;BMP280;46804;51.786;19.520;2023-07-31T00:29:06;158730.75;;;17.67
60936;BMP280;46804;51.786;19.520;2023-07-31T00:33:07;158679.16;;;17.47
60936;BMP280;46804;51.786;19.520;2023-07-31T00:37:08;158663.66;;;17.41
60936;BMP280;46804;51.786;19.520;2023-07-31T00:41:08;158646.91;;;17.34
60936;BMP280;46804;51.786;19.520;2023-07-31T00:45:09;158635.31;;;17.30
60936;BMP280;46804;51.786;19.520;2023-07-31T00:49:10;158618.53;;;17.24
60936;BMP280;46804;51.786;19.520;2023-07-31T00:53:11;158604.38;;;17.18
60936;BMP280;46804;51.786;19.520;2023-07-31T00:57:12;158570.78;;;17.05
60936;BMP280;46804;51.786;19.520;2023-07-31T01:01:13;158577.25;;;17.08
60936;BMP280;46804;51.786;19.520;2023-07-31T01:05:13;158564.34;;;17.03
60936;BMP280;46804;51.786;19.520;2023-07-31T01:09:29;158565.63;;;17.03
60936;BMP280;46804;51.786;19.520;2023-07-31T01:13:30;158541.09;;;16.94
60936;BMP280;46804;51.786;19.520;2023-07-31T01:17:30;158534.66;;;16.92
60936;BMP280;46804;51.786;19.520;2023-07-31T01:25:54;158506.31;;;16.81
60936;BMP280;46804;51.786;19.520;2023-07-31T01:30:03;158506.31;;;16.81
60936;BMP280;46804;51.786;19.520;2023-07-31T01:34:11;158538.53;;;16.93
60936;BMP280;46804;51.786;19.520;2023-07-31T01:38:12;158510.19;;;16.82
60936;BMP280;46804;51.786;19.520;2023-07-31T01:42:13;158512.75;;;16.83
60936;BMP280;46804;51.786;19.520;2023-07-31T01:46:14;158485.72;;;16.73
60936;BMP280;46804;51.786;19.520;2023-07-31T01:50:15;158479.28;;;16.70
60936;BMP280;46804;51.786;19.520;2023-07-31T01:54:16;158467.66;;;16.66
60936;BMP280;46804;51.786;19.520;2023-07-31T01:58:16;158450.91;;;16.60
60936;BMP280;46804;51.786;19.520;2023-07-31T02:02:17;158453.47;;;16.61
60936;BMP280;46804;51.786;19.520;2023-07-31T02:06:18;158441.88;;;16.56
60936;BMP280;46804;51.786;19.520;2023-07-31T02:10:18;158436.72;;;16.54
60936;BMP280;46804;51.786;19.520;2023-07-31T02:14:19;158437.97;;;16.55
60936;BMP280;46804;51.786;19.520;2023-07-31T02:18:20;158427.66;;;16.51
60936;BMP280;46804;51.786;19.520;2023-07-31T02:22:21;158418.69;;;16.47
60936;BMP280;46804;51.786;19.520;2023-07-31T02:26:21;158426.38;;;16.50
60936;BMP280;46804;51.786;19.520;2023-07-31T02:30:22;158394.19;;;16.38
60936;BMP280;46804;51.786;19.520;2023-07-31T02:34:23;158407.06;;;16.43
60936;BMP280;46804;51.786;19.520;2023-07-31T02:38:23;158398.03;;;16.39
60936;BMP280;46804;51.786;19.520;2023-07-31T02:42:24;158392.88;;;16.37
60936;BMP280;46804;51.786;19.520;2023-07-31T02:46:25;158395.47;;;16.38
60936;BMP280;46804;51.786;19.520;2023-07-31T02:50:25;158395.47;;;16.38
60936;BMP280;46804;51.786;19.520;2023-07-31T02:54:28;158410.97;;;16.44
60936;BMP280;46804;51.786;19.520;2023-07-31T02:58:28;158408.34;;;16.43
60936;BMP280;46804;51.786;19.520;2023-07-31T03:02:29;158418.69;;;16.47
60936;BMP280;46804;51.786;19.520;2023-07-31T03:06:30;158434.16;;;16.53
60936;BMP280;46804;51.786;19.520;2023-07-31T03:10:30;158419.94;;;16.48
60936;BMP280;46804;51.786;19.520;2023-07-31T03:14:31;158421.22;;;16.48
60936;BMP280;46804;51.786;19.520;2023-07-31T03:18:32;158396.75;;;16.39
60936;BMP280;46804;51.786;19.520;2023-07-31T03:22:32;158408.34;;;16.43
60936;BMP280;46804;51.786;19.520;2023-07-31T03:26:35;158409.63;;;16.44
60936;BMP280;46804;51.786;19.520;2023-07-31T03:30:36;158410.97;;;16.44
60936;BMP280;46804;51.786;19.520;2023-07-31T03:34:38;158405.81;;;16.42
60936;BMP280;46804;51.786;19.520;2023-07-31T03:38:39;158419.94;;;16.48
60936;BMP280;46804;51.786;19.520;2023-07-31T03:42:40;158404.47;;;16.42
60936;BMP280;46804;51.786;19.520;2023-07-31T03:46:40;158422.56;;;16.49
60936;BMP280;46804;51.786;19.520;2023-07-31T03:50:41;158403.19;;;16.41
60936;BMP280;46804;51.786;19.520;2023-07-31T03:54:42;158382.59;;;16.33
60936;BMP280;46804;51.786;19.520;2023-07-31T03:58:44;158405.81;;;16.42
60936;BMP280;46804;51.786;19.520;2023-07-31T04:02:45;158404.47;;;16.42
60936;BMP280;46804;51.786;19.520;2023-07-31T04:06:46;158429.00;;;16.51
60936;BMP280;46804;51.786;19.520;2023-07-31T04:10:47;158408.34;;;16.43
60936;BMP280;46804;51.786;19.520;2023-07-31T04:14:48;158407.06;;;16.43
60936;BMP280;46804;51.786;19.520;2023-07-31T04:18:49;158413.50;;;16.45
60936;BMP280;46804;51.786;19.520;2023-07-31T04:22:51;158413.50;;;16.45
60936;BMP280;46804;51.786;19.520;2023-07-31T04:26:52;158423.84;;;16.49
60936;BMP280;46804;51.786;19.520;2023-07-31T04:30:53;158426.38;;;16.50
60936;BMP280;46804;51.786;19.520;2023-07-31T04:34:54;158447.03;;;16.58
60936;BMP280;46804;51.786;19.520;2023-07-31T04:38:54;158452.19;;;16.60
60936;BMP280;46804;51.786;19.520;2023-07-31T04:42:56;158465.06;;;16.65
60936;BMP280;46804;51.786;19.520;2023-07-31T04:46:56;158474.13;;;16.68
60936;BMP280;46804;51.786;19.520;2023-07-31T04:50:57;158497.31;;;16.77
60936;BMP280;46804;51.786;19.520;2023-07-31T04:54:58;158483.09;;;16.72
60936;BMP280;46804;51.786;19.520;2023-07-31T04:58:58;158488.25;;;16.74
60936;BMP280;46804;51.786;19.520;2023-07-31T05:02:59;158467.66;;;16.66
60936;BMP280;46804;51.786;19.520;2023-07-31T05:07:00;158480.56;;;16.71
60936;BMP280;46804;51.786;19.520;2023-07-31T05:11:00;158506.31;;;16.81
60936;BMP280;46804;51.786;19.520;2023-07-31T05:15:01;158534.66;;;16.92
60936;BMP280;46804;51.786;19.520;2023-07-31T05:19:02;158512.75;;;16.83
60936;BMP280;46804;51.786;19.520;2023-07-31T05:23:03;158560.47;;;17.01
60936;BMP280;46804;51.786;19.520;2023-07-31T05:27:04;158582.41;;;17.10
60936;BMP280;46804;51.786;19.520;2023-07-31T05:31:05;158583.69;;;17.10
60936;BMP280;46804;51.786;19.520;2023-07-31T05:35:06;158603.03;;;17.18
60936;BMP280;46804;51.786;19.520;2023-07-31T05:39:06;158655.94;;;17.38
60936;BMP280;46804;51.786;19.520;2023-07-31T05:43:08;158652.06;;;17.36
60936;BMP280;46804;51.786;19.520;2023-07-31T05:47:10;158710.09;;;17.59
60936;BMP280;46804;51.786;19.520;2023-07-31T05:51:10;158725.59;;;17.65
60936;BMP280;46804;51.786;19.520;2023-07-31T05:55:11;158707.53;;;17.58
60936;BMP280;46804;51.786;19.520;2023-07-31T05:59:12;158721.69;;;17.63
60936;BMP280;46804;51.786;19.520;2023-07-31T06:03:13;158704.94;;;17.57
60936;BMP280;46804;51.786;19.520;2023-07-31T06:07:14;158708.81;;;17.58
60936;BMP280;46804;51.786;19.520;2023-07-31T06:11:15;158792.66;;;17.90
60936;BMP280;46804;51.786;19.520;2023-07-31T06:15:16;158859.78;;;18.16
60936;BMP280;46804;51.786;19.520;2023-07-31T06:19:16;158933.31;;;18.44
60936;BMP280;46804;51.786;19.520;2023-07-31T06:23:17;158925.59;;;18.41
60936;BMP280;46804;51.786;19.520;2023-07-31T06:27:19;158951.38;;;18.51
60936;BMP280;46804;51.786;19.520;2023-07-31T06:31:19;159068.91;;;18.96
60936;BMP280;46804;51.786;19.520;2023-07-31T06:35:23;159044.34;;;18.86
60936;BMP280;46804;51.786;19.520;2023-07-31T06:39:23;159125.72;;;19.17
60936;BMP280;46804;51.786;19.520;2023-07-31T06:43:24;159099.94;;;19.07
60936;BMP280;46804;51.786;19.520;2023-07-31T06:47:25;159092.16;;;19.05
60936;BMP280;46804;51.786;19.520;2023-07-31T06:51:26;159208.41;;;19.49
60936;BMP280;46804;51.786;19.520;2023-07-31T06:55:26;159296.25;;;19.82
60936;BMP280;46804;51.786;19.520;2023-07-31T06:59:27;159346.63;;;20.02
60936;BMP280;46804;51.786;19.520;2023-07-31T07:03:28;159442.25;;;20.38
60936;BMP280;46804;51.786;19.520;2023-07-31T07:07:29;159399.59;;;20.22
60936;BMP280;46804;51.786;19.520;2023-07-31T07:11:29;159381.50;;;20.15
60936;BMP280;46804;51.786;19.520;2023-07-31T07:15:30;159368.59;;;20.10
60936;BMP280;46804;51.786;19.520;2023-07-31T07:19:31;159256.16;;;19.67
60936;BMP280;46804;51.786;19.520;2023-07-31T07:23:31;159347.91;;;20.02
60936;BMP280;46804;51.786;19.520;2023-07-31T07:27:32;159391.84;;;20.19
60936;BMP280;46804;51.786;19.520;2023-07-31T07:31:33;159336.28;;;19.98
60936;BMP280;46804;51.786;19.520;2023-07-31T07:35:34;159369.88;;;20.10
60936;BMP280;46804;51.786;19.520;2023-07-31T07:39:35;159620.66;;;21.06
60936;BMP280;46804;51.786;19.520;2023-07-31T07:43:36;159513.34;;;20.65
60936;BMP280;46804;51.786;19.520;2023-07-31T07:47:38;159775.84;;;21.65
60936;BMP280;46804;51.786;19.520;2023-07-31T07:51:38;159743.50;;;21.53
60936;BMP280;46804;51.786;19.520;2023-07-31T07:55:39;159777.13;;;21.66
60936;BMP280;46804;51.786;19.520;2023-07-31T07:59:40;159721.56;;;21.45
60936;BMP280;46804;51.786;19.520;2023-07-31T08:03:41;159703.44;;;21.38
60936;BMP280;46804;51.786;19.520;2023-07-31T08:07:42;159614.19;;;21.04
60936;BMP280;46804;51.786;19.520;2023-07-31T08:11:43;159673.66;;;21.26
60936;BMP280;46804;51.786;19.520;2023-07-31T08:15:43;159650.38;;;21.17
60936;BMP280;46804;51.786;19.520;2023-07-31T08:19:44;159753.88;;;21.57
60936;BMP280;46804;51.786;19.520;2023-07-31T08:23:46;159631.00;;;21.10
60936;BMP280;46804;51.786;19.520;2023-07-31T08:27:47;159621.94;;;21.07
60936;BMP280;46804;51.786;19.520;2023-07-31T08:31:48;159787.50;;;21.70
60936;BMP280;46804;51.786;19.520;2023-07-31T08:35:48;159583.13;;;20.92
60936;BMP280;46804;51.786;19.520;2023-07-31T08:39:49;159716.41;;;21.43
60936;BMP280;46804;51.786;19.520;2023-07-31T08:43:51;159878.03;;;22.04
60936;BMP280;46804;51.786;19.520;2023-07-31T08:47:52;159941.47;;;22.28
60936;BMP280;46804;51.786;19.520;2023-07-31T08:51:54;160065.69;;;22.76
60936;BMP280;46804;51.786;19.520;2023-07-31T08:55:56;160180.94;;;23.19
60936;BMP280;46804;51.786;19.520;2023-07-31T08:59:58;160121.41;;;22.97
60936;BMP280;46804;51.786;19.520;2023-07-31T09:03:59;160122.69;;;22.97
60936;BMP280;46804;51.786;19.520;2023-07-31T09:08:01;160152.47;;;23.09
60936;BMP280;46804;51.786;19.520;2023-07-31T09:12:02;160098.06;;;22.88
60936;BMP280;46804;51.786;19.520;2023-07-31T09:16:03;159941.47;;;22.28
60936;BMP280;46804;51.786;19.520;2023-07-31T09:24:18;160017.78;;;22.57
60936;BMP280;46804;51.786;19.520;2023-07-31T09:28:30;160175.75;;;23.17
60936;BMP280;46804;51.786;19.520;2023-07-31T09:32:31;160315.59;;;23.71
60936;BMP280;46804;51.786;19.520;2023-07-31T09:36:31;160279.38;;;23.57
60936;BMP280;46804;51.786;19.520;2023-07-31T09:40:33;160206.78;;;23.29
60936;BMP280;46804;51.786;19.520;2023-07-31T09:44:37;159916.91;;;22.19
60936;BMP280;46804;51.786;19.520;2023-07-31T09:48:39;160143.38;;;23.05
60936;BMP280;46804;51.786;19.520;2023-07-31T09:52:39;160125.25;;;22.98
60936;BMP280;46804;51.786;19.520;2023-07-31T09:56:44;160169.28;;;23.15
60936;BMP280;46804;51.786;19.520;2023-07-31T10:00:45;160276.81;;;23.56
60936;BMP280;46804;51.786;19.520;2023-07-31T10:04:46;160090.31;;;22.85
60936;BMP280;46804;51.786;19.520;2023-07-31T10:08:48;160108.44;;;22.92
60936;BMP280;46804;51.786;19.520;2023-07-31T10:12:54;160230.16;;;23.38
60936;BMP280;46804;51.786;19.520;2023-07-31T10:16:57;160208.13;;;23.30
60936;BMP280;46804;51.786;19.520;2023-07-31T10:20:57;160279.38;;;23.57
60936;BMP280;46804;51.786;19.520;2023-07-31T10:24:58;160155.03;;;23.10
60936;BMP280;46804;51.786;19.520;2023-07-31T10:28:59;160221.06;;;23.35
60936;BMP280;46804;51.786;19.520;2023-07-31T10:33:01;160366.13;;;23.90
60936;BMP280;46804;51.786;19.520;2023-07-31T10:41:29;160471.13;;;24.30
60936;BMP280;46804;51.786;19.520;2023-07-31T10:45:41;160600.63;;;24.79
60936;BMP280;46804;51.786;19.520;2023-07-31T10:49:44;160622.66;;;24.88
60936;BMP280;46804;51.786;19.520;2023-07-31T10:53:45;160512.56;;;24.46
60936;BMP280;46804;51.786;19.520;2023-07-31T10:57:47;160446.41;;;24.20
60936;BMP280;46804;51.786;19.520;2023-07-31T11:09:58;160414.06;;;24.08
60936;BMP280;46804;51.786;19.520;2023-07-31T11:13:58;160353.19;;;23.85
60936;BMP280;46804;51.786;19.520;2023-07-31T11:18:02;160445.13;;;24.20
60936;BMP280;46804;51.786;19.520;2023-07-31T11:22:05;160408.88;;;24.06
60936;BMP280;46804;51.786;19.520;2023-07-31T11:26:07;160507.38;;;24.44
60936;BMP280;46804;51.786;19.520;2023-07-31T11:30:08;160856.09;;;25.76
60936;BMP280;46804;51.786;19.520;2023-07-31T11:34:08;161115.50;;;26.75
60936;BMP280;46804;51.786;19.520;2023-07-31T11:38:09;161199.91;;;27.07
60936;BMP280;46804;51.786;19.520;2023-07-31T11:42:09;160915.72;;;25.99
60936;BMP280;46804;51.786;19.520;2023-07-31T11:46:10;160629.19;;;24.90
60936;BMP280;46804;51.786;19.520;2023-07-31T11:50:11;160574.75;;;24.69
60936;BMP280;46804;51.786;19.520;2023-07-31T11:54:14;160634.38;;;24.92
60936;BMP280;46804;51.786;19.520;2023-07-31T11:58:15;160297.47;;;23.64
60936;BMP280;46804;51.786;19.520;2023-07-31T12:02:17;160187.41;;;23.22
60936;BMP280;46804;51.786;19.520;2023-07-31T12:06:18;160191.31;;;23.23
60936;BMP280;46804;51.786;19.520;2023-07-31T12:14:28;160259.91;;;23.50
60936;BMP280;46804;51.786;19.520;2023-07-31T12:18:38;160158.94;;;23.11
60936;BMP280;46804;51.786;19.520;2023-07-31T12:22:39;160200.34;;;23.27
60936;BMP280;46804;51.786;19.520;2023-07-31T12:26:39;160122.69;;;22.97
60936;BMP280;46804;51.786;19.520;2023-07-31T12:30:40;159907.81;;;22.15
60936;BMP280;46804;51.786;19.520;2023-07-31T12:34:44;159914.28;;;22.18
60936;BMP280;46804;51.786;19.520;2023-07-31T12:38:44;159947.94;;;22.31
60936;BMP280;46804;51.786;19.520;2023-07-31T12:42:46;160022.97;;;22.59
60936;BMP280;46804;51.786;19.520;2023-07-31T12:46:47;160111.06;;;22.93
60936;BMP280;46804;51.786;19.520;2023-07-31T12:50:48;160298.81;;;23.64
60936;BMP280;46804;51.786;19.520;2023-07-31T12:54:48;160293.63;;;23.62
60936;BMP280;46804;51.786;19.520;2023-07-31T12:58:49;160268.94;;;23.53
60936;BMP280;46804;51.786;19.520;2023-07-31T13:02:49;160236.63;;;23.41
60936;BMP280;46804;51.786;19.520;2023-07-31T13:06:50;160318.22;;;23.72
60936;BMP280;46804;51.786;19.520;2023-07-31T13:10:50;160310.47;;;23.69
60936;BMP280;46804;51.786;19.520;2023-07-31T13:14:51;160395.94;;;24.01
60936;BMP280;46804;51.786;19.520;2023-07-31T13:18:52;160531.97;;;24.53
60936;BMP280;46804;51.786;19.520;2023-07-31T13:22:53;160436.09;;;24.17
60936;BMP280;46804;51.786;19.520;2023-07-31T13:26:55;160554.00;;;24.61
60936;BMP280;46804;51.786;19.520;2023-07-31T13:30:55;160473.69;;;24.31
60936;BMP280;46804;51.786;19.520;2023-07-31T13:34:56;160668.09;;;25.05
60936;BMP280;46804;51.786;19.520;2023-07-31T13:38:56;160845.72;;;25.72
60936;BMP280;46804;51.786;19.520;2023-07-31T13:42:57;160771.75;;;25.44
60936;BMP280;46804;51.786;19.520;2023-07-31T13:46:58;160541.06;;;24.56
60936;BMP280;46804;51.786;19.520;2023-07-31T13:50:58;160376.50;;;23.94
60936;BMP280;46804;51.786;19.520;2023-07-31T13:54:59;160453.00;;;24.23
60936;BMP280;46804;51.786;19.520;2023-07-31T13:58:59;160438.66;;;24.18
60936;BMP280;46804;51.786;19.520;2023-07-31T14:03:01;160583.78;;;24.73
60936;BMP280;46804;51.786;19.520;2023-07-31T14:07:02;160509.94;;;24.45
60936;BMP280;46804;51.786;19.520;2023-07-31T14:11:03;160471.13;;;24.30
60936;BMP280;46804;51.786;19.520;2023-07-31T14:15:04;160325.97;;;23.75
60936;BMP280;46804;51.786;19.520;2023-07-31T14:19:05;160399.81;;;24.03
60936;BMP280;46804;51.786;19.520;2023-07-31T14:23:05;160244.38;;;23.44
60936;BMP280;46804;51.786;19.520;2023-07-31T14:27:06;160406.25;;;24.05
60936;BMP280;46804;51.786;19.520;2023-07-31T14:31:07;160469.78;;;24.29
60936;BMP280;46804;51.786;19.520;2023-07-31T14:35:07;160323.41;;;23.74
60936;BMP280;46804;51.786;19.520;2023-07-31T14:39:08;160336.34;;;23.79
60936;BMP280;46804;51.786;19.520;2023-07-31T14:43:09;160287.16;;;23.60
60936;BMP280;46804;51.786;19.520;2023-07-31T14:47:09;160453.00;;;24.23
60936;BMP280;46804;51.786;19.520;2023-07-31T14:51:09;160453.00;;;24.23
60936;BMP280;46804;51.786;19.520;2023-07-31T14:55:10;160206.78;;;23.29
60936;BMP280;46804;51.786;19.520;2023-07-31T14:59:11;160162.81;;;23.13
60936;BMP280;46804;51.786;19.520;2023-07-31T15:03:11;160160.22;;;23.12
60936;BMP280;46804;51.786;19.520;2023-07-31T15:07:12;160061.81;;;22.74
60936;BMP280;46804;51.786;19.520;2023-07-31T15:11:14;160155.03;;;23.10
60936;BMP280;46804;51.786;19.520;2023-07-31T15:15:16;160059.25;;;22.73
60936;BMP280;46804;51.786;19.520;2023-07-31T15:19:17;160082.53;;;22.82
60936;BMP280;46804;51.786;19.520;2023-07-31T15:23:17;160108.44;;;22.92
60936;BMP280;46804;51.786;19.520;2023-07-31T15:27:18;160139.53;;;23.04
60936;BMP280;46804;51.786;19.520;2023-07-31T15:31:19;160026.88;;;22.61
60936;BMP280;46804;51.786;19.520;2023-07-31T15:35:20;159916.91;;;22.19
60936;BMP280;46804;51.786;19.520;2023-07-31T15:39:20;160000.97;;;22.51
60936;BMP280;46804;51.786;19.520;2023-07-31T15:43:21;160038.50;;;22.65
60936;BMP280;46804;51.786;19.520;2023-07-31T15:47:22;159984.13;;;22.45
60936;BMP280;46804;51.786;19.520;2023-07-31T15:51:23;159916.91;;;22.19
60936;BMP280;46804;51.786;19.520;2023-07-31T15:55:23;159938.91;;;22.27
60936;BMP280;46804;51.786;19.520;2023-07-31T15:59:25;160026.88;;;22.61
60936;BMP280;46804;51.786;19.520;2023-07-31T16:03:25;159946.66;;;22.30
60936;BMP280;46804;51.786;19.520;2023-07-31T16:07:26;159894.84;;;22.11
60936;BMP280;46804;51.786;19.520;2023-07-31T16:11:27;159892.25;;;22.10
60936;BMP280;46804;51.786;19.520;2023-07-31T16:15:27;159883.22;;;22.06
60936;BMP280;46804;51.786;19.520;2023-07-31T16:19:29;159862.50;;;21.98
60936;BMP280;46804;51.786;19.520;2023-07-31T16:23:30;159976.41;;;22.42
60936;BMP280;46804;51.786;19.520;2023-07-31T16:27:30;159980.28;;;22.43
60936;BMP280;46804;51.786;19.520;2023-07-31T16:31:31;159951.84;;;22.32
60936;BMP280;46804;51.786;19.520;2023-07-31T16:35:32;159888.41;;;22.08
60936;BMP280;46804;51.786;19.520;2023-07-31T16:39:32;159875.41;;;22.03
60936;BMP280;46804;51.786;19.520;2023-07-31T16:43:35;159867.69;;;22.00
60936;BMP280;46804;51.786;19.520;2023-07-31T16:47:36;159848.31;;;21.93
60936;BMP280;46804;51.786;19.520;2023-07-31T16:51:37;159836.66;;;21.88
60936;BMP280;46804;51.786;19.520;2023-07-31T16:55:37;159841.84;;;21.90
60936;BMP280;46804;51.786;19.520;2023-07-31T16:59:38;159787.50;;;21.70
60936;BMP280;46804;51.786;19.520;2023-07-31T17:03:39;159801.75;;;21.75
60936;BMP280;46804;51.786;19.520;2023-07-31T17:07:39;159728.03;;;21.47
60936;BMP280;46804;51.786;19.520;2023-07-31T17:11:40;159702.16;;;21.37
60936;BMP280;46804;51.786;19.520;2023-07-31T17:15:40;159698.19;;;21.36
60936;BMP280;46804;51.786;19.520;2023-07-31T17:19:42;159733.22;;;21.49
60936;BMP280;46804;51.786;19.520;2023-07-31T17:23:42;159712.50;;;21.41
60936;BMP280;46804;51.786;19.520;2023-07-31T17:27:43;159676.25;;;21.27
60936;BMP280;46804;51.786;19.520;2023-07-31T17:31:43;159671.09;;;21.25
60936;BMP280;46804;51.786;19.520;2023-07-31T17:35:44;159678.81;;;21.28
60936;BMP280;46804;51.786;19.520;2023-07-31T17:39:44;159713.78;;;21.42
60936;BMP280;46804;51.786;19.520;2023-07-31T17:43:45;159704.75;;;21.38
60936;BMP280;46804;51.786;19.520;2023-07-31T17:47:46;159695.63;;;21.35
60936;BMP280;46804;51.786;19.520;2023-07-31T17:51:47;159681.38;;;21.29
60936;BMP280;46804;51.786;19.520;2023-07-31T17:55:47;159668.47;;;21.24
60936;BMP280;46804;51.786;19.520;2023-07-31T17:59:48;159673.66;;;21.26
60936;BMP280;46804;51.786;19.520;2023-07-31T18:03:49;159654.28;;;21.19
60936;BMP280;46804;51.786;19.520;2023-07-31T18:07:49;159640.03;;;21.13
60936;BMP280;46804;51.786;19.520;2023-07-31T18:11:50;159643.91;;;21.15
60936;BMP280;46804;51.786;19.520;2023-07-31T18:15:51;159618.03;;;21.05
60936;BMP280;46804;51.786;19.520;2023-07-31T18:19:51;159589.59;;;20.94
60936;BMP280;46804;51.786;19.520;2023-07-31T18:23:52;159588.31;;;20.94
60936;BMP280;46804;51.786;19.520;2023-07-31T18:27:52;159597.38;;;20.97
60936;BMP280;46804;51.786;19.520;2023-07-31T18:31:53;159574.13;;;20.88
60936;BMP280;46804;51.786;19.520;2023-07-31T18:35:54;159587.03;;;20.93
60936;BMP280;46804;51.786;19.520;2023-07-31T18:39:54;159575.41;;;20.89
60936;BMP280;46804;51.786;19.520;2023-07-31T18:43:56;159557.31;;;20.82
60936;BMP280;46804;51.786;19.520;2023-07-31T18:47:56;159534.06;;;20.73
60936;BMP280;46804;51.786;19.520;2023-07-31T18:51:57;159544.38;;;20.77
60936;BMP280;46804;51.786;19.520;2023-07-31T18:55:58;159525.00;;;20.70
60936;BMP280;46804;51.786;19.520;2023-07-31T18:59:58;159525.00;;;20.70
60936;BMP280;46804;51.786;19.520;2023-07-31T19:03:59;159492.63;;;20.57
60936;BMP280;46804;51.786;19.520;2023-07-31T19:08:00;159460.34;;;20.45
60936;BMP280;46804;51.786;19.520;2023-07-31T19:12:05;159469.34;;;20.48
60936;BMP280;46804;51.786;19.520;2023-07-31T19:16:05;159452.56;;;20.42
60936;BMP280;46804;51.786;19.520;2023-07-31T19:20:06;159448.72;;;20.41
60936;BMP280;46804;51.786;19.520;2023-07-31T19:24:07;159429.31;;;20.33
60936;BMP280;46804;51.786;19.520;2023-07-31T19:28:08;159435.75;;;20.36
60936;BMP280;46804;51.786;19.520;2023-07-31T19:32:08;159422.84;;;20.31
60936;BMP280;46804;51.786;19.520;2023-07-31T19:36:09;159417.66;;;20.29
60936;BMP280;46804;51.786;19.520;2023-07-31T19:40:10;159398.31;;;20.21
60936;BMP280;46804;51.786;19.520;2023-07-31T19:44:10;159378.91;;;20.14
60936;BMP280;46804;51.786;19.520;2023-07-31T19:48:11;159367.28;;;20.09
60936;BMP280;46804;51.786;19.520;2023-07-31T19:52:12;159353.09;;;20.04
60936;BMP280;46804;51.786;19.520;2023-07-31T19:56:13;159332.41;;;19.96
60936;BMP280;46804;51.786;19.520;2023-07-31T20:00:13;159316.94;;;19.90
60936;BMP280;46804;51.786;19.520;2023-07-31T20:04:14;159305.31;;;19.86
60936;BMP280;46804;51.786;19.520;2023-07-31T20:08:15;159303.97;;;19.85
60936;BMP280;46804;51.786;19.520;2023-07-31T20:12:15;159291.09;;;19.80
60936;BMP280;46804;51.786;19.520;2023-07-31T20:16:16;159281.97;;;19.77
60936;BMP280;46804;51.786;19.520;2023-07-31T20:20:17;159279.41;;;19.76
60936;BMP280;46804;51.786;19.520;2023-07-31T20:24:18;159274.22;;;19.74
60936;BMP280;46804;51.786;19.520;2023-07-31T20:28:18;159267.78;;;19.72
60936;BMP280;46804;51.786;19.520;2023-07-31T20:32:19;159254.88;;;19.67
60936;BMP280;46804;51.786;19.520;2023-07-31T20:36:19;159252.25;;;19.66
60936;BMP280;46804;51.786;19.520;2023-07-31T20:40:20;159245.81;;;19.63
60936;BMP280;46804;51.786;19.520;2023-07-31T20:44:21;159244.53;;;19.63
60936;BMP280;46804;51.786;19.520;2023-07-31T20:48:21;159252.25;;;19.66
60936;BMP280;46804;51.786;19.520;2023-07-31T20:52:22;159248.44;;;19.64
60936;BMP280;46804;51.786;19.520;2023-07-31T20:56:22;159244.53;;;19.63
60936;BMP280;46804;51.786;19.520;2023-07-31T21:00:23;159247.09;;;19.64
60936;BMP280;46804;51.786;19.520;2023-07-31T21:04:24;159239.38;;;19.61
60936;BMP280;46804;51.786;19.520;2023-07-31T21:08:24;159229.03;;;19.57
60936;BMP280;46804;51.786;19.520;2023-07-31T21:12:25;159239.38;;;19.61
60936;BMP280;46804;51.786;19.520;2023-07-31T21:16:25;159234.19;;;19.59
60936;BMP280;46804;51.786;19.520;2023-07-31T21:20:26;159222.56;;;19.54
60936;BMP280;46804;51.786;19.520;2023-07-31T21:24:27;159222.56;;;19.54
60936;BMP280;46804;51.786;19.520;2023-07-31T21:28:28;159196.78;;;19.44
60936;BMP280;46804;51.786;19.520;2023-07-31T21:32:29;159169.63;;;19.34
60936;BMP280;46804;51.786;19.520;2023-07-31T21:36:29;159130.91;;;19.19
60936;BMP280;46804;51.786;19.520;2023-07-31T21:40:30;159099.94;;;19.07
60936;BMP280;46804;51.786;19.520;2023-07-31T21:44:30;159058.53;;;18.92
60936;BMP280;46804;51.786;19.520;2023-07-31T21:48:31;159031.47;;;18.81
60936;BMP280;46804;51.786;19.520;2023-07-31T21:52:32;159012.06;;;18.74
60936;BMP280;46804;51.786;19.520;2023-07-31T21:56:32;158970.78;;;18.58
60936;BMP280;46804;51.786;19.520;2023-07-31T22:00:33;158961.72;;;18.55
60936;BMP280;46804;51.786;19.520;2023-07-31T22:04:33;158934.66;;;18.44
60936;BMP280;46804;51.786;19.520;2023-07-31T22:08:34;158906.25;;;18.34
60936;BMP280;46804;51.786;19.520;2023-07-31T22:12:34;158898.50;;;18.31
60936;BMP280;46804;51.786;19.520;2023-07-31T22:16:35;158881.72;;;18.24
60936;BMP280;46804;51.786;19.520;2023-07-31T22:20:37;158883.00;;;18.25
60936;BMP280;46804;51.786;19.520;2023-07-31T22:24:37;158880.44;;;18.24
60936;BMP280;46804;51.786;19.520;2023-07-31T22:28:38;158857.22;;;18.15
60936;BMP280;46804;51.786;19.520;2023-07-31T22:32:39;158830.06;;;18.04
60936;BMP280;46804;51.786;19.520;2023-07-31T22:36:39;158804.28;;;17.95
60936;BMP280;46804;51.786;19.520;2023-07-31T22:40:40;158786.19;;;17.88
60936;BMP280;46804;51.786;19.520;2023-07-31T22:44:40;158764.28;;;17.79
60936;BMP280;46804;51.786;19.520;2023-07-31T22:48:41;158748.81;;;17.73
60936;BMP280;46804;51.786;19.520;2023-07-31T22:52:42;158755.25;;;17.76